sensor_id;sensor_type;location;lat;lon;timestamp;P1;durP1;ratioP1;P2;durP2;ratioP2
21036;SDS011;10677;50.942;4.028;2023-10-19T00:00:32;2.92;;;0.50;;
21036;SDS011;10677;50.942;4.028;2023-10-19T00:02:59;3.75;;;0.57;;
21036;SDS011;10677;50.942;4.028;2023-10-19T00:05:28;4.00;;;0.70;;
21036;SDS011;10677;50.942;4.028;2023-10-19T00:07:56;3.92;;;0.70;;
21036;SDS011;10677;50.942;4.028;2023-10-19T00:10:25;4.50;;;0.70;;
21036;SDS011;10677;50.942;4.028;2023-10-19T00:12:58;4.22;;;0.93;;
21036;SDS011;10677;50.942;4.028;2023-10-19T00:15:31;4.05;;;0.80;;
21036;SDS011;10677;50.942;4.028;2023-10-19T00:17:59;7.20;;;0.70;;
21036;SDS011;10677;50.942;4.028;2023-10-19T00:20:46;4.00;;;1.15;;
21036;SDS011;10677;50.942;4.028;2023-10-19T00:23:13;4.28;;;0.60;;
21036;SDS011;10677;50.942;4.028;2023-10-19T00:25:41;2.17;;;0.47;;
21036;SDS011;10677;50.942;4.028;2023-10-19T00:28:07;3.42;;;0.80;;
21036;SDS011;10677;50.942;4.028;2023-10-19T00:30:33;5.10;;;0.75;;
21036;SDS011;10677;50.942;4.028;2023-10-19T00:33:02;6.07;;;0.70;;
21036;SDS011;10677;50.942;4.028;2023-10-19T00:35:35;7.30;;;1.10;;
21036;SDS011;10677;50.942;4.028;2023-10-19T00:38:01;4.63;;;0.60;;
21036;SDS011;10677;50.942;4.028;2023-10-19T00:40:53;4.60;;;1.40;;
21036;SDS011;10677;50.942;4.028;2023-10-19T00:43:27;4.97;;;1.00;;
21036;SDS011;10677;50.942;4.028;2023-10-19T00:46:02;7.28;;;1.02;;
21036;SDS011;10677;50.942;4.028;2023-10-19T00:48:35;2.70;;;0.77;;
21036;SDS011;10677;50.942;4.028;2023-10-19T00:51:02;3.60;;;1.08;;
21036;SDS011;10677;50.942;4.028;2023-10-19T00:53:37;3.13;;;0.73;;
21036;SDS011;10677;50.942;4.028;2023-10-19T00:56:04;5.20;;;0.80;;
21036;SDS011;10677;50.942;4.028;2023-10-19T00:58:34;5.82;;;0.80;;
21036;SDS011;10677;50.942;4.028;2023-10-19T01:01:04;3.42;;;0.60;;
21036;SDS011;10677;50.942;4.028;2023-10-19T01:03:32;4.05;;;0.90;;
21036;SDS011;10677;50.942;4.028;2023-10-19T01:06:02;6.40;;;0.85;;
21036;SDS011;10677;50.942;4.028;2023-10-19T01:08:36;5.70;;;0.63;;
21036;SDS011;10677;50.942;4.028;2023-10-19T01:11:07;6.50;;;0.80;;
21036;SDS011;10677;50.942;4.028;2023-10-19T01:13:36;3.53;;;0.57;;
21036;SDS011;10677;50.942;4.028;2023-10-19T01:16:03;5.50;;;0.60;;
21036;SDS011;10677;50.942;4.028;2023-10-19T01:18:30;5.78;;;0.90;;
21036;SDS011;10677;50.942;4.028;2023-10-19T01:20:58;4.22;;;0.60;;
21036;SDS011;10677;50.942;4.028;2023-10-19T01:23:29;4.13;;;1.10;;
21036;SDS011;10677;50.942;4.028;2023-10-19T01:25:58;5.45;;;0.95;;
21036;SDS011;10677;50.942;4.028;2023-10-19T01:28:26;9.55;;;2.35;;
21036;SDS011;10677;50.942;4.028;2023-10-19T01:31:21;4.55;;;0.90;;
21036;SDS011;10677;50.942;4.028;2023-10-19T01:34:09;5.80;;;1.10;;
21036;SDS011;10677;50.942;4.028;2023-10-19T01:36:35;5.95;;;1.00;;
21036;SDS011;10677;50.942;4.028;2023-10-19T01:39:07;2.83;;;0.70;;
21036;SDS011;10677;50.942;4.028;2023-10-19T01:41:36;7.60;;;1.00;;
21036;SDS011;10677;50.942;4.028;2023-10-19T01:44:03;3.80;;;0.95;;
21036;SDS011;10677;50.942;4.028;2023-10-19T01:46:29;5.60;;;1.35;;
21036;SDS011;10677;50.942;4.028;2023-10-19T01:49:02;5.68;;;1.23;;
21036;SDS011;10677;50.942;4.028;2023-10-19T01:51:33;5.25;;;1.40;;
21036;SDS011;10677;50.942;4.028;2023-10-19T01:54:03;4.40;;;1.00;;
21036;SDS011;10677;50.942;4.028;2023-10-19T01:56:31;10.60;;;1.55;;
21036;SDS011;10677;50.942;4.028;2023-10-19T01:59:00;6.18;;;1.30;;
21036;SDS011;10677;50.942;4.028;2023-10-19T02:01:26;8.38;;;1.25;;
21036;SDS011;10677;50.942;4.028;2023-10-19T02:03:52;5.07;;;0.93;;
21036;SDS011;10677;50.942;4.028;2023-10-19T02:06:26;5.30;;;0.88;;
21036;SDS011;10677;50.942;4.028;2023-10-19T02:09:07;7.97;;;1.38;;
21036;SDS011;10677;50.942;4.028;2023-10-19T02:11:34;5.18;;;1.25;;
21036;SDS011;10677;50.942;4.028;2023-10-19T02:14:06;5.22;;;0.98;;
21036;SDS011;10677;50.942;4.028;2023-10-19T02:16:39;3.28;;;1.25;;
21036;SDS011;10677;50.942;4.028;2023-10-19T02:19:09;7.15;;;1.20;;
21036;SDS011;10677;50.942;4.028;2023-10-19T02:21:34;4.72;;;1.00;;
21036;SDS011;10677;50.942;4.028;2023-10-19T02:24:07;7.88;;;1.58;;
21036;SDS011;10677;50.942;4.028;2023-10-19T02:26:34;6.35;;;1.20;;
21036;SDS011;10677;50.942;4.028;2023-10-19T02:29:02;5.78;;;1.20;;
21036;SDS011;10677;50.942;4.028;2023-10-19T02:31:35;11.82;;;1.58;;
21036;SDS011;10677;50.942;4.028;2023-10-19T02:34:05;6.15;;;1.27;;
21036;SDS011;10677;50.942;4.028;2023-10-19T02:36:40;5.28;;;0.98;;
21036;SDS011;10677;50.942;4.028;2023-10-19T02:39:08;8.23;;;2.05;;
21036;SDS011;10677;50.942;4.028;2023-10-19T02:41:36;5.13;;;1.35;;
21036;SDS011;10677;50.942;4.028;2023-10-19T02:44:22;4.88;;;1.23;;
21036;SDS011;10677;50.942;4.028;2023-10-19T02:46:49;9.63;;;1.25;;
21036;SDS011;10677;50.942;4.028;2023-10-19T02:49:17;7.72;;;1.77;;
21036;SDS011;10677;50.942;4.028;2023-10-19T02:51:48;6.60;;;1.33;;
21036;SDS011;10677;50.942;4.028;2023-10-19T02:54:16;9.88;;;1.20;;
21036;SDS011;10677;50.942;4.028;2023-10-19T02:56:47;4.85;;;1.10;;
21036;SDS011;10677;50.942;4.028;2023-10-19T02:59:18;6.85;;;1.48;;
21036;SDS011;10677;50.942;4.028;2023-10-19T03:04:40;7.50;;;1.05;;
21036;SDS011;10677;50.942;4.028;2023-10-19T03:07:06;5.25;;;1.33;;
21036;SDS011;10677;50.942;4.028;2023-10-19T03:09:32;6.50;;;1.30;;
21036;SDS011;10677;50.942;4.028;2023-10-19T03:12:01;5.63;;;1.20;;
21036;SDS011;10677;50.942;4.028;2023-10-19T03:14:29;5.85;;;1.15;;
21036;SDS011;10677;50.942;4.028;2023-10-19T03:16:54;6.32;;;1.70;;
21036;SDS011;10677;50.942;4.028;2023-10-19T03:19:21;5.10;;;0.98;;
21036;SDS011;10677;50.942;4.028;2023-10-19T03:21:47;9.45;;;2.03;;
21036;SDS011;10677;50.942;4.028;2023-10-19T03:24:16;6.38;;;1.65;;
21036;SDS011;10677;50.942;4.028;2023-10-19T03:27:00;6.57;;;1.30;;
21036;SDS011;10677;50.942;4.028;2023-10-19T03:32:10;6.22;;;1.20;;
21036;SDS011;10677;50.942;4.028;2023-10-19T03:34:37;6.53;;;1.33;;
21036;SDS011;10677;50.942;4.028;2023-10-19T03:37:08;5.32;;;1.08;;
21036;SDS011;10677;50.942;4.028;2023-10-19T03:39:37;5.47;;;1.40;;
21036;SDS011;10677;50.942;4.028;2023-10-19T03:42:06;12.77;;;1.90;;
21036;SDS011;10677;50.942;4.028;2023-10-19T03:44:38;10.65;;;2.00;;
21036;SDS011;10677;50.942;4.028;2023-10-19T03:47:13;7.65;;;1.42;;
21036;SDS011;10677;50.942;4.028;2023-10-19T03:49:43;7.30;;;1.58;;
21036;SDS011;10677;50.942;4.028;2023-10-19T03:52:09;6.50;;;1.88;;
21036;SDS011;10677;50.942;4.028;2023-10-19T03:54:35;5.47;;;1.02;;
21036;SDS011;10677;50.942;4.028;2023-10-19T03:57:04;10.68;;;1.58;;
21036;SDS011;10677;50.942;4.028;2023-10-19T03:59:55;16.08;;;2.08;;
21036;SDS011;10677;50.942;4.028;2023-10-19T04:02:27;12.70;;;1.73;;
21036;SDS011;10677;50.942;4.028;2023-10-19T04:04:55;10.90;;;1.92;;
21036;SDS011;10677;50.942;4.028;2023-10-19T04:07:22;7.55;;;1.77;;
21036;SDS011;10677;50.942;4.028;2023-10-19T04:09:51;8.43;;;1.63;;
21036;SDS011;10677;50.942;4.028;2023-10-19T04:12:33;14.05;;;2.00;;
21036;SDS011;10677;50.942;4.028;2023-10-19T04:15:06;7.97;;;1.65;;
21036;SDS011;10677;50.942;4.028;2023-10-19T04:17:42;9.98;;;1.48;;
21036;SDS011;10677;50.942;4.028;2023-10-19T04:20:10;8.57;;;2.20;;
21036;SDS011;10677;50.942;4.028;2023-10-19T04:22:42;9.80;;;1.27;;
21036;SDS011;10677;50.942;4.028;2023-10-19T04:25:08;7.75;;;2.20;;
21036;SDS011;10677;50.942;4.028;2023-10-19T04:27:37;9.38;;;1.90;;
21036;SDS011;10677;50.942;4.028;2023-10-19T04:30:04;10.32;;;1.90;;
21036;SDS011;10677;50.942;4.028;2023-10-19T04:32:40;8.90;;;1.98;;
21036;SDS011;10677;50.942;4.028;2023-10-19T04:35:09;13.18;;;2.20;;
21036;SDS011;10677;50.942;4.028;2023-10-19T04:37:35;8.27;;;1.67;;
21036;SDS011;10677;50.942;4.028;2023-10-19T04:40:01;11.15;;;1.77;;
21036;SDS011;10677;50.942;4.028;2023-10-19T04:42:27;10.05;;;1.83;;
21036;SDS011;10677;50.942;4.028;2023-10-19T04:44:56;12.40;;;2.50;;
21036;SDS011;10677;50.942;4.028;2023-10-19T04:47:22;9.13;;;1.92;;
21036;SDS011;10677;50.942;4.028;2023-10-19T04:49:48;7.68;;;1.63;;
21036;SDS011;10677;50.942;4.028;2023-10-19T04:52:14;8.82;;;1.60;;
21036;SDS011;10677;50.942;4.028;2023-10-19T04:54:40;7.22;;;1.40;;
21036;SDS011;10677;50.942;4.028;2023-10-19T04:57:07;10.88;;;2.55;;
21036;SDS011;10677;50.942;4.028;2023-10-19T04:59:32;12.88;;;2.20;;
21036;SDS011;10677;50.942;4.028;2023-10-19T05:01:58;8.50;;;1.90;;
21036;SDS011;10677;50.942;4.028;2023-10-19T05:04:27;13.63;;;2.20;;
21036;SDS011;10677;50.942;4.028;2023-10-19T05:06:54;9.07;;;1.83;;
21036;SDS011;10677;50.942;4.028;2023-10-19T05:09:20;9.15;;;2.13;;
21036;SDS011;10677;50.942;4.028;2023-10-19T05:11:46;10.52;;;2.33;;
21036;SDS011;10677;50.942;4.028;2023-10-19T05:14:12;12.20;;;1.95;;
21036;SDS011;10677;50.942;4.028;2023-10-19T05:16:42;13.88;;;2.30;;
21036;SDS011;10677;50.942;4.028;2023-10-19T05:19:07;10.18;;;1.77;;
21036;SDS011;10677;50.942;4.028;2023-10-19T05:21:33;7.95;;;1.80;;
21036;SDS011;10677;50.942;4.028;2023-10-19T05:23:59;8.20;;;1.77;;
21036;SDS011;10677;50.942;4.028;2023-10-19T05:26:25;9.70;;;2.00;;
21036;SDS011;10677;50.942;4.028;2023-10-19T05:28:52;11.35;;;1.75;;
21036;SDS011;10677;50.942;4.028;2023-10-19T05:31:17;11.65;;;1.77;;
21036;SDS011;10677;50.942;4.028;2023-10-19T05:33:43;8.95;;;1.70;;
21036;SDS011;10677;50.942;4.028;2023-10-19T05:36:09;7.70;;;1.63;;
21036;SDS011;10677;50.942;4.028;2023-10-19T05:38:34;11.13;;;1.98;;
21036;SDS011;10677;50.942;4.028;2023-10-19T05:41:00;14.35;;;2.05;;
21036;SDS011;10677;50.942;4.028;2023-10-19T05:43:26;10.82;;;2.25;;
21036;SDS011;10677;50.942;4.028;2023-10-19T05:45:53;15.30;;;2.55;;
21036;SDS011;10677;50.942;4.028;2023-10-19T05:48:19;10.25;;;2.05;;
21036;SDS011;10677;50.942;4.028;2023-10-19T05:50:45;9.30;;;2.03;;
21036;SDS011;10677;50.942;4.028;2023-10-19T05:53:11;10.77;;;2.03;;
21036;SDS011;10677;50.942;4.028;2023-10-19T05:55:37;17.85;;;2.42;;
21036;SDS011;10677;50.942;4.028;2023-10-19T05:58:04;11.95;;;2.10;;
21036;SDS011;10677;50.942;4.028;2023-10-19T06:00:30;15.63;;;2.65;;
21036;SDS011;10677;50.942;4.028;2023-10-19T06:02:56;11.73;;;2.33;;
21036;SDS011;10677;50.942;4.028;2023-10-19T06:05:25;9.15;;;2.40;;
21036;SDS011;10677;50.942;4.028;2023-10-19T06:07:52;12.27;;;4.50;;
21036;SDS011;10677;50.942;4.028;2023-10-19T06:10:18;10.18;;;2.33;;
21036;SDS011;10677;50.942;4.028;2023-10-19T06:12:49;10.55;;;2.72;;
21036;SDS011;10677;50.942;4.028;2023-10-19T06:15:16;9.75;;;2.60;;
21036;SDS011;10677;50.942;4.028;2023-10-19T06:17:43;10.18;;;2.30;;
21036;SDS011;10677;50.942;4.028;2023-10-19T06:20:10;12.55;;;2.55;;
21036;SDS011;10677;50.942;4.028;2023-10-19T06:22:48;17.02;;;3.03;;
21036;SDS011;10677;50.942;4.028;2023-10-19T06:25:29;11.50;;;2.47;;
21036;SDS011;10677;50.942;4.028;2023-10-19T06:27:55;14.65;;;2.38;;
21036;SDS011;10677;50.942;4.028;2023-10-19T06:30:22;13.15;;;2.03;;
21036;SDS011;10677;50.942;4.028;2023-10-19T06:32:49;17.00;;;2.65;;
21036;SDS011;10677;50.942;4.028;2023-10-19T06:35:18;13.65;;;2.53;;
21036;SDS011;10677;50.942;4.028;2023-10-19T06:37:44;17.35;;;3.10;;
21036;SDS011;10677;50.942;4.028;2023-10-19T06:40:11;15.52;;;2.50;;
21036;SDS011;10677;50.942;4.028;2023-10-19T06:42:40;11.50;;;3.40;;
21036;SDS011;10677;50.942;4.028;2023-10-19T06:45:12;13.57;;;3.22;;
21036;SDS011;10677;50.942;4.028;2023-10-19T06:47:42;11.25;;;2.25;;
21036;SDS011;10677;50.942;4.028;2023-10-19T06:50:10;11.55;;;2.33;;
21036;SDS011;10677;50.942;4.028;2023-10-19T06:52:46;11.55;;;2.55;;
21036;SDS011;10677;50.942;4.028;2023-10-19T06:55:16;14.15;;;2.40;;
21036;SDS011;10677;50.942;4.028;2023-10-19T06:57:45;12.88;;;2.58;;
21036;SDS011;10677;50.942;4.028;2023-10-19T07:00:16;11.90;;;2.90;;
21036;SDS011;10677;50.942;4.028;2023-10-19T07:02:46;12.57;;;2.63;;
21036;SDS011;10677;50.942;4.028;2023-10-19T07:05:14;9.50;;;2.05;;
21036;SDS011;10677;50.942;4.028;2023-10-19T07:07:45;18.50;;;2.80;;
21036;SDS011;10677;50.942;4.028;2023-10-19T07:10:13;11.20;;;3.13;;
21036;SDS011;10677;50.942;4.028;2023-10-19T07:12:40;13.35;;;2.60;;
21036;SDS011;10677;50.942;4.028;2023-10-19T07:18:10;10.05;;;2.90;;
21036;SDS011;10677;50.942;4.028;2023-10-19T07:20:36;15.23;;;2.72;;
21036;SDS011;10677;50.942;4.028;2023-10-19T07:23:03;18.27;;;3.00;;
21036;SDS011;10677;50.942;4.028;2023-10-19T07:25:51;18.48;;;3.25;;
21036;SDS011;10677;50.942;4.028;2023-10-19T07:28:20;13.90;;;3.22;;
21036;SDS011;10677;50.942;4.028;2023-10-19T07:30:47;15.13;;;3.38;;
21036;SDS011;10677;50.942;4.028;2023-10-19T07:33:13;11.85;;;3.42;;
21036;SDS011;10677;50.942;4.028;2023-10-19T07:35:42;11.48;;;3.78;;
21036;SDS011;10677;50.942;4.028;2023-10-19T07:38:11;18.55;;;3.80;;
21036;SDS011;10677;50.942;4.028;2023-10-19T07:40:39;15.38;;;3.67;;
21036;SDS011;10677;50.942;4.028;2023-10-19T07:43:05;13.80;;;3.92;;
21036;SDS011;10677;50.942;4.028;2023-10-19T07:45:31;11.48;;;3.63;;
21036;SDS011;10677;50.942;4.028;2023-10-19T07:47:59;15.60;;;4.53;;
21036;SDS011;10677;50.942;4.028;2023-10-19T07:50:38;12.88;;;3.03;;
21036;SDS011;10677;50.942;4.028;2023-10-19T07:53:08;18.70;;;3.60;;
21036;SDS011;10677;50.942;4.028;2023-10-19T07:55:34;18.17;;;3.30;;
21036;SDS011;10677;50.942;4.028;2023-10-19T07:58:00;17.15;;;3.03;;
21036;SDS011;10677;50.942;4.028;2023-10-19T08:00:28;18.02;;;3.20;;
21036;SDS011;10677;50.942;4.028;2023-10-19T08:02:54;14.38;;;2.90;;
21036;SDS011;10677;50.942;4.028;2023-10-19T08:05:20;14.48;;;2.75;;
21036;SDS011;10677;50.942;4.028;2023-10-19T08:07:47;10.15;;;2.47;;
21036;SDS011;10677;50.942;4.028;2023-10-19T08:10:14;11.38;;;2.75;;
21036;SDS011;10677;50.942;4.028;2023-10-19T08:12:41;17.52;;;2.60;;
21036;SDS011;10677;50.942;4.028;2023-10-19T08:15:12;18.02;;;2.10;;
21036;SDS011;10677;50.942;4.028;2023-10-19T08:17:42;15.82;;;2.83;;
21036;SDS011;10677;50.942;4.028;2023-10-19T08:20:10;14.73;;;2.45;;
21036;SDS011;10677;50.942;4.028;2023-10-19T08:22:43;11.60;;;1.58;;
21036;SDS011;10677;50.942;4.028;2023-10-19T08:25:12;13.90;;;2.15;;
21036;SDS011;10677;50.942;4.028;2023-10-19T08:27:42;12.75;;;2.13;;
21036;SDS011;10677;50.942;4.028;2023-10-19T08:30:17;13.13;;;2.60;;
21036;SDS011;10677;50.942;4.028;2023-10-19T08:32:44;17.83;;;2.67;;
21036;SDS011;10677;50.942;4.028;2023-10-19T08:35:13;10.63;;;3.20;;
21036;SDS011;10677;50.942;4.028;2023-10-19T08:37:40;12.23;;;2.05;;
21036;SDS011;10677;50.942;4.028;2023-10-19T08:40:07;12.90;;;2.33;;
21036;SDS011;10677;50.942;4.028;2023-10-19T08:42:39;17.67;;;2.30;;
21036;SDS011;10677;50.942;4.028;2023-10-19T08:45:06;17.65;;;2.85;;
21036;SDS011;10677;50.942;4.028;2023-10-19T08:47:34;15.05;;;2.45;;
21036;SDS011;10677;50.942;4.028;2023-10-19T08:50:02;18.60;;;3.35;;
21036;SDS011;10677;50.942;4.028;2023-10-19T08:52:30;21.38;;;2.60;;
21036;SDS011;10677;50.942;4.028;2023-10-19T08:54:57;18.10;;;2.78;;
21036;SDS011;10677;50.942;4.028;2023-10-19T08:57:23;13.88;;;2.63;;
21036;SDS011;10677;50.942;4.028;2023-10-19T08:59:49;13.32;;;2.17;;
21036;SDS011;10677;50.942;4.028;2023-10-19T09:02:15;11.32;;;2.42;;
21036;SDS011;10677;50.942;4.028;2023-10-19T09:04:42;14.55;;;2.33;;
21036;SDS011;10677;50.942;4.028;2023-10-19T09:07:09;11.90;;;2.03;;
21036;SDS011;10677;50.942;4.028;2023-10-19T09:09:36;15.40;;;2.33;;
21036;SDS011;10677;50.942;4.028;2023-10-19T09:12:06;19.48;;;2.72;;
21036;SDS011;10677;50.942;4.028;2023-10-19T09:14:36;22.52;;;3.08;;
21036;SDS011;10677;50.942;4.028;2023-10-19T09:17:06;15.32;;;2.67;;
21036;SDS011;10677;50.942;4.028;2023-10-19T09:19:40;14.45;;;2.47;;
21036;SDS011;10677;50.942;4.028;2023-10-19T09:22:12;12.25;;;2.17;;
21036;SDS011;10677;50.942;4.028;2023-10-19T09:24:53;15.02;;;3.10;;
21036;SDS011;10677;50.942;4.028;2023-10-19T09:27:19;12.98;;;3.38;;
21036;SDS011;10677;50.942;4.028;2023-10-19T09:29:45;14.95;;;3.05;;
21036;SDS011;10677;50.942;4.028;2023-10-19T09:32:12;17.00;;;2.97;;
21036;SDS011;10677;50.942;4.028;2023-10-19T09:34:41;14.10;;;3.30;;
21036;SDS011;10677;50.942;4.028;2023-10-19T09:37:09;14.52;;;2.65;;
21036;SDS011;10677;50.942;4.028;2023-10-19T09:39:36;20.00;;;2.53;;
21036;SDS011;10677;50.942;4.028;2023-10-19T09:47:12;13.00;;;2.17;;
21036;SDS011;10677;50.942;4.028;2023-10-19T09:49:42;13.07;;;2.05;;
21036;SDS011;10677;50.942;4.028;2023-10-19T09:52:09;8.90;;;2.50;;
21036;SDS011;10677;50.942;4.028;2023-10-19T09:54:45;10.43;;;2.45;;
21036;SDS011;10677;50.942;4.028;2023-10-19T09:57:37;17.58;;;2.67;;
21036;SDS011;10677;50.942;4.028;2023-10-19T10:00:19;14.77;;;3.85;;
21036;SDS011;10677;50.942;4.028;2023-10-19T10:02:50;13.60;;;2.60;;
21036;SDS011;10677;50.942;4.028;2023-10-19T10:10:50;16.55;;;2.78;;
21036;SDS011;10677;50.942;4.028;2023-10-19T10:15:57;17.48;;;3.80;;
21036;SDS011;10677;50.942;4.028;2023-10-19T10:18:30;14.88;;;2.35;;
21036;SDS011;10677;50.942;4.028;2023-10-19T10:21:07;10.90;;;2.15;;
21036;SDS011;10677;50.942;4.028;2023-10-19T10:26:17;10.68;;;2.13;;
21036;SDS011;10677;50.942;4.028;2023-10-19T10:29:06;14.18;;;2.67;;
21036;SDS011;10677;50.942;4.028;2023-10-19T10:31:45;11.35;;;2.28;;
21036;SDS011;10677;50.942;4.028;2023-10-19T10:37:10;12.45;;;2.13;;
21036;SDS011;10677;50.942;4.028;2023-10-19T10:39:38;11.85;;;1.75;;
21036;SDS011;10677;50.942;4.028;2023-10-19T10:42:06;6.90;;;1.67;;
21036;SDS011;10677;50.942;4.028;2023-10-19T10:44:43;10.15;;;2.33;;
21036;SDS011;10677;50.942;4.028;2023-10-19T10:47:21;14.35;;;1.92;;
21036;SDS011;10677;50.942;4.028;2023-10-19T10:49:50;9.88;;;2.00;;
21036;SDS011;10677;50.942;4.028;2023-10-19T10:52:25;10.68;;;2.25;;
21036;SDS011;10677;50.942;4.028;2023-10-19T10:55:00;16.10;;;4.68;;
21036;SDS011;10677;50.942;4.028;2023-10-19T10:57:36;14.95;;;2.10;;
21036;SDS011;10677;50.942;4.028;2023-10-19T11:00:06;14.95;;;1.83;;
21036;SDS011;10677;50.942;4.028;2023-10-19T11:02:37;12.73;;;2.20;;
21036;SDS011;10677;50.942;4.028;2023-10-19T11:05:08;11.10;;;2.30;;
21036;SDS011;10677;50.942;4.028;2023-10-19T11:07:37;14.52;;;2.72;;
21036;SDS011;10677;50.942;4.028;2023-10-19T11:10:03;12.48;;;2.33;;
21036;SDS011;10677;50.942;4.028;2023-10-19T11:12:30;10.18;;;1.92;;
21036;SDS011;10677;50.942;4.028;2023-10-19T11:14:57;9.13;;;2.08;;
21036;SDS011;10677;50.942;4.028;2023-10-19T11:17:24;13.05;;;2.50;;
21036;SDS011;10677;50.942;4.028;2023-10-19T11:19:57;16.48;;;3.05;;
21036;SDS011;10677;50.942;4.028;2023-10-19T11:22:24;11.13;;;1.90;;
21036;SDS011;10677;50.942;4.028;2023-10-19T11:24:51;12.98;;;2.33;;
21036;SDS011;10677;50.942;4.028;2023-10-19T11:27:25;13.60;;;2.08;;
21036;SDS011;10677;50.942;4.028;2023-10-19T11:29:57;11.57;;;2.38;;
21036;SDS011;10677;50.942;4.028;2023-10-19T11:32:24;9.60;;;2.28;;
21036;SDS011;10677;50.942;4.028;2023-10-19T11:34:51;9.85;;;2.33;;
21036;SDS011;10677;50.942;4.028;2023-10-19T11:37:18;13.90;;;2.30;;
21036;SDS011;10677;50.942;4.028;2023-10-19T11:39:44;12.70;;;2.30;;
21036;SDS011;10677;50.942;4.028;2023-10-19T11:42:10;13.20;;;2.58;;
21036;SDS011;10677;50.942;4.028;2023-10-19T11:44:37;8.05;;;2.10;;
21036;SDS011;10677;50.942;4.028;2023-10-19T11:47:04;17.13;;;2.90;;
21036;SDS011;10677;50.942;4.028;2023-10-19T11:49:30;10.88;;;1.75;;
21036;SDS011;10677;50.942;4.028;2023-10-19T11:51:56;15.30;;;2.38;;
21036;SDS011;10677;50.942;4.028;2023-10-19T11:54:22;13.55;;;2.53;;
21036;SDS011;10677;50.942;4.028;2023-10-19T11:56:48;14.65;;;2.22;;
21036;SDS011;10677;50.942;4.028;2023-10-19T11:59:14;13.45;;;3.10;;
21036;SDS011;10677;50.942;4.028;2023-10-19T12:01:40;7.65;;;2.20;;
21036;SDS011;10677;50.942;4.028;2023-10-19T12:04:07;11.25;;;1.67;;
21036;SDS011;10677;50.942;4.028;2023-10-19T12:06:34;7.88;;;2.50;;
21036;SDS011;10677;50.942;4.028;2023-10-19T12:09:01;13.07;;;2.20;;
21036;SDS011;10677;50.942;4.028;2023-10-19T12:11:39;8.60;;;1.73;;
21036;SDS011;10677;50.942;4.028;2023-10-19T12:14:11;12.88;;;2.28;;
21036;SDS011;10677;50.942;4.028;2023-10-19T12:16:40;11.60;;;2.15;;
21036;SDS011;10677;50.942;4.028;2023-10-19T12:19:07;10.30;;;2.00;;
21036;SDS011;10677;50.942;4.028;2023-10-19T12:21:33;7.45;;;1.45;;
21036;SDS011;10677;50.942;4.028;2023-10-19T12:23:59;7.15;;;1.30;;
21036;SDS011;10677;50.942;4.028;2023-10-19T12:26:29;5.85;;;1.30;;
21036;SDS011;10677;50.942;4.028;2023-10-19T12:29:10;7.43;;;1.33;;
21036;SDS011;10677;50.942;4.028;2023-10-19T12:31:36;7.93;;;1.50;;
21036;SDS011;10677;50.942;4.028;2023-10-19T12:34:05;6.93;;;1.63;;
21036;SDS011;10677;50.942;4.028;2023-10-19T12:36:32;5.82;;;0.98;;
21036;SDS011;10677;50.942;4.028;2023-10-19T12:38:59;5.35;;;1.10;;
21036;SDS011;10677;50.942;4.028;2023-10-19T12:41:25;6.07;;;1.67;;
21036;SDS011;10677;50.942;4.028;2023-10-19T12:43:53;5.90;;;0.93;;
21036;SDS011;10677;50.942;4.028;2023-10-19T12:46:33;4.97;;;1.00;;
21036;SDS011;10677;50.942;4.028;2023-10-19T12:49:01;5.15;;;0.80;;
21036;SDS011;10677;50.942;4.028;2023-10-19T12:51:39;5.57;;;0.90;;
21036;SDS011;10677;50.942;4.028;2023-10-19T12:54:07;5.00;;;1.52;;
21036;SDS011;10677;50.942;4.028;2023-10-19T12:56:35;2.03;;;0.70;;
21036;SDS011;10677;50.942;4.028;2023-10-19T12:59:01;2.63;;;0.77;;
21036;SDS011;10677;50.942;4.028;2023-10-19T13:01:26;3.70;;;1.08;;
21036;SDS011;10677;50.942;4.028;2023-10-19T13:03:53;2.53;;;0.70;;
21036;SDS011;10677;50.942;4.028;2023-10-19T13:06:18;3.90;;;0.80;;
21036;SDS011;10677;50.942;4.028;2023-10-19T13:08:44;4.85;;;0.90;;
21036;SDS011;10677;50.942;4.028;2023-10-19T13:11:11;3.25;;;0.80;;
21036;SDS011;10677;50.942;4.028;2023-10-19T13:13:40;3.80;;;0.90;;
21036;SDS011;10677;50.942;4.028;2023-10-19T13:16:05;3.03;;;0.98;;
21036;SDS011;10677;50.942;4.028;2023-10-19T13:18:32;3.67;;;1.05;;
21036;SDS011;10677;50.942;4.028;2023-10-19T13:21:00;4.03;;;1.20;;
21036;SDS011;10677;50.942;4.028;2023-10-19T13:23:36;2.95;;;0.93;;
21036;SDS011;10677;50.942;4.028;2023-10-19T13:26:02;4.22;;;0.93;;
21036;SDS011;10677;50.942;4.028;2023-10-19T13:28:42;4.57;;;1.20;;
21036;SDS011;10677;50.942;4.028;2023-10-19T13:31:08;2.88;;;0.70;;
21036;SDS011;10677;50.942;4.028;2023-10-19T13:33:34;3.67;;;0.80;;
21036;SDS011;10677;50.942;4.028;2023-10-19T13:36:06;5.55;;;0.95;;
21036;SDS011;10677;50.942;4.028;2023-10-19T13:38:32;4.90;;;1.20;;
21036;SDS011;10677;50.942;4.028;2023-10-19T13:41:09;5.10;;;0.93;;
21036;SDS011;10677;50.942;4.028;2023-10-19T13:43:36;2.95;;;0.88;;
21036;SDS011;10677;50.942;4.028;2023-10-19T13:46:02;5.38;;;1.15;;
21036;SDS011;10677;50.942;4.028;2023-10-19T13:48:29;6.13;;;1.42;;
21036;SDS011;10677;50.942;4.028;2023-10-19T13:50:55;5.97;;;1.10;;
21036;SDS011;10677;50.942;4.028;2023-10-19T13:53:38;6.78;;;1.05;;
21036;SDS011;10677;50.942;4.028;2023-10-19T13:56:07;4.35;;;1.02;;
21036;SDS011;10677;50.942;4.028;2023-10-19T13:58:36;4.70;;;1.17;;
21036;SDS011;10677;50.942;4.028;2023-10-19T14:01:02;2.63;;;0.80;;
21036;SDS011;10677;50.942;4.028;2023-10-19T14:03:33;4.90;;;0.80;;
21036;SDS011;10677;50.942;4.028;2023-10-19T14:05:59;4.75;;;1.42;;
21036;SDS011;10677;50.942;4.028;2023-10-19T14:08:25;8.02;;;1.60;;
21036;SDS011;10677;50.942;4.028;2023-10-19T14:10:51;5.70;;;1.58;;
21036;SDS011;10677;50.942;4.028;2023-10-19T14:13:17;4.95;;;1.33;;
21036;SDS011;10677;50.942;4.028;2023-10-19T14:15:43;5.13;;;1.25;;
21036;SDS011;10677;50.942;4.028;2023-10-19T14:18:09;3.63;;;0.95;;
21036;SDS011;10677;50.942;4.028;2023-10-19T14:20:36;5.15;;;1.35;;
21036;SDS011;10677;50.942;4.028;2023-10-19T14:23:04;3.88;;;1.27;;
21036;SDS011;10677;50.942;4.028;2023-10-19T14:25:30;3.15;;;1.00;;
21036;SDS011;10677;50.942;4.028;2023-10-19T14:27:56;4.38;;;1.00;;
21036;SDS011;10677;50.942;4.028;2023-10-19T14:30:26;3.17;;;0.95;;
21036;SDS011;10677;50.942;4.028;2023-10-19T14:32:56;4.22;;;1.10;;
21036;SDS011;10677;50.942;4.028;2023-10-19T14:35:23;3.00;;;0.80;;
21036;SDS011;10677;50.942;4.028;2023-10-19T14:37:51;5.53;;;1.45;;
21036;SDS011;10677;50.942;4.028;2023-10-19T14:40:24;6.90;;;1.52;;
21036;SDS011;10677;50.942;4.028;2023-10-19T14:42:54;3.75;;;1.00;;
21036;SDS011;10677;50.942;4.028;2023-10-19T14:45:22;3.72;;;0.80;;
21036;SDS011;10677;50.942;4.028;2023-10-19T14:47:56;2.45;;;0.70;;
21036;SDS011;10677;50.942;4.028;2023-10-19T14:50:30;3.47;;;1.00;;
21036;SDS011;10677;50.942;4.028;2023-10-19T14:52:56;4.80;;;0.80;;
21036;SDS011;10677;50.942;4.028;2023-10-19T14:55:22;4.95;;;1.08;;
21036;SDS011;10677;50.942;4.028;2023-10-19T14:57:48;5.55;;;0.68;;
21036;SDS011;10677;50.942;4.028;2023-10-19T15:00:18;3.28;;;0.82;;
21036;SDS011;10677;50.942;4.028;2023-10-19T15:02:51;4.07;;;0.80;;
21036;SDS011;10677;50.942;4.028;2023-10-19T15:05:19;5.25;;;0.95;;
21036;SDS011;10677;50.942;4.028;2023-10-19T15:07:46;3.50;;;0.82;;
21036;SDS011;10677;50.942;4.028;2023-10-19T15:10:20;2.80;;;0.90;;
21036;SDS011;10677;50.942;4.028;2023-10-19T15:12:48;4.72;;;1.20;;
21036;SDS011;10677;50.942;4.028;2023-10-19T15:15:14;4.57;;;0.90;;
21036;SDS011;10677;50.942;4.028;2023-10-19T15:17:40;3.38;;;0.88;;
21036;SDS011;10677;50.942;4.028;2023-10-19T15:20:07;3.80;;;0.95;;